createdAt,value
2022-10-16T00:02:25.658Z,30.98
2022-10-16T00:07:30.820Z,33.72
2022-10-16T00:12:34.134Z,36.60
2022-10-16T00:17:37.618Z,47.30
2022-10-16T00:22:42.322Z,35.47
2022-10-16T00:27:45.632Z,26.73
2022-10-16T00:32:49.038Z,28.15
2022-10-16T00:37:53.728Z,25.88
2022-10-16T00:42:57.308Z,28.83
2022-10-16T00:48:00.697Z,28.48
2022-10-16T00:53:05.685Z,23.17
2022-10-16T00:58:09.387Z,25.88
2022-10-16T01:03:28.466Z,25.95
2022-10-16T01:08:41.325Z,22.60
2022-10-16T01:13:49.022Z,20.27
2022-10-16T01:18:59.012Z,23.02
2022-10-16T01:24:08.896Z,23.15
2022-10-16T01:29:20.270Z,29.58
2022-10-16T01:34:30.104Z,27.45
2022-10-16T01:44:41.731Z,32.58
2022-10-16T01:49:47.040Z,28.05
2022-10-16T01:54:53.164Z,33.03
2022-10-16T02:00:03.419Z,29.25
2022-10-16T02:05:20.774Z,28.83
2022-10-16T02:10:26.182Z,29.60
2022-10-16T02:15:30.953Z,26.17
2022-10-16T02:20:40.077Z,33.97
2022-10-16T02:25:46.790Z,25.17
2022-10-16T02:30:55.834Z,24.95
2022-10-16T02:35:59.876Z,27.40
2022-10-16T02:41:03.452Z,30.27
2022-10-16T02:46:08.357Z,36.00
2022-10-16T02:51:11.934Z,28.77
2022-10-16T02:56:15.317Z,36.33
2022-10-16T03:08:26.562Z,25.67
2022-10-16T03:13:29.864Z,23.45
2022-10-16T03:18:33.266Z,26.20
2022-10-16T03:23:38.025Z,27.88
2022-10-16T03:28:41.416Z,26.23
2022-10-16T03:33:44.792Z,24.98
2022-10-16T03:38:49.592Z,28.33
2022-10-16T03:43:52.921Z,22.80
2022-10-16T03:48:56.430Z,23.67
2022-10-16T03:54:01.153Z,24.92
2022-10-16T03:59:04.484Z,22.00
2022-10-16T04:04:07.811Z,26.10
2022-10-16T04:09:12.612Z,21.80
2022-10-16T04:14:16.250Z,22.60
2022-10-16T04:19:19.575Z,26.67
2022-10-16T04:24:24.466Z,28.63
2022-10-16T04:29:27.837Z,27.50
2022-10-16T04:34:31.170Z,24.65
2022-10-16T04:39:35.927Z,25.80
2022-10-16T04:44:39.303Z,30.27
2022-10-16T04:49:42.674Z,26.58
2022-10-16T04:54:47.457Z,28.58
2022-10-16T04:59:50.818Z,27.63
2022-10-16T05:04:54.191Z,28.23
2022-10-16T05:09:59.013Z,31.20
2022-10-16T05:15:02.486Z,35.55
2022-10-16T05:20:07.030Z,28.25
2022-10-16T05:25:12.051Z,28.25
2022-10-16T05:30:15.406Z,25.50
2022-10-16T05:35:20.477Z,26.58
2022-10-16T05:40:25.266Z,26.35
2022-10-16T05:45:28.622Z,31.17
2022-10-16T05:50:32.035Z,31.90
2022-10-16T05:55:36.811Z,27.63
2022-10-16T06:00:40.249Z,24.98
2022-10-16T06:05:43.915Z,25.80
2022-10-16T06:10:50.393Z,27.38
2022-10-16T06:15:53.785Z,37.13
2022-10-16T06:20:57.512Z,27.67
2022-10-16T06:26:08.619Z,28.95
2022-10-16T06:31:13.336Z,29.63
2022-10-16T06:36:18.477Z,23.60
2022-10-16T06:41:24.837Z,27.35
2022-10-16T06:46:29.432Z,22.95
2022-10-16T06:51:36.813Z,18.83
2022-10-16T07:01:47.167Z,13.98
2022-10-16T07:06:50.713Z,17.33
2022-10-16T07:11:55.463Z,16.08
2022-10-16T07:16:58.866Z,14.38
2022-10-16T07:22:02.526Z,13.63
2022-10-16T07:27:07.838Z,16.52
2022-10-16T07:32:11.237Z,13.90
2022-10-16T07:37:14.583Z,12.82
2022-10-16T07:42:19.460Z,14.65
2022-10-16T07:47:22.892Z,13.80
2022-10-16T07:52:26.258Z,13.23
2022-10-16T07:57:31.094Z,12.30
2022-10-16T08:02:34.408Z,13.48
2022-10-16T08:07:37.737Z,10.68
2022-10-16T08:12:42.436Z,10.57
2022-10-16T08:17:46.025Z,12.45
2022-10-16T08:22:49.682Z,11.30
2022-10-16T08:27:54.459Z,11.85
2022-10-16T08:32:59.175Z,13.80
2022-10-16T08:38:04.875Z,15.63
2022-10-16T08:43:29.575Z,16.75
2022-10-16T08:48:40.142Z,12.40
2022-10-16T08:53:48.618Z,15.43
2022-10-16T08:58:57.991Z,9.75
2022-10-16T09:04:25.481Z,11.40
2022-10-16T09:09:45.454Z,11.13
2022-10-16T09:15:18.950Z,11.77
2022-10-16T09:20:32.565Z,11.15
2022-10-16T09:25:37.084Z,13.10
2022-10-16T09:30:42.100Z,10.88
2022-10-16T09:35:47.640Z,11.13
2022-10-16T09:41:03.046Z,9.93
2022-10-16T09:46:10.392Z,11.60
2022-10-16T09:51:22.385Z,10.95
2022-10-16T09:56:28.410Z,10.80
2022-10-16T10:01:39.668Z,10.27
2022-10-16T10:06:49.761Z,11.30
2022-10-16T10:11:56.426Z,8.48
2022-10-16T10:17:16.912Z,9.90
2022-10-16T10:22:33.525Z,12.00
2022-10-16T10:27:45.345Z,10.30
2022-10-16T10:32:58.536Z,9.20
2022-10-16T10:38:15.556Z,9.55
2022-10-16T10:43:33.449Z,9.57
2022-10-16T10:49:01.449Z,8.02
2022-10-16T10:54:17.043Z,13.15
2022-10-16T10:59:45.850Z,12.65
2022-10-16T11:05:22.597Z,13.40
2022-10-16T11:10:31.285Z,10.07
2022-10-16T11:15:38.731Z,9.25
2022-10-16T11:20:47.833Z,12.63
2022-10-16T11:25:51.525Z,11.20
2022-10-16T11:31:01.397Z,17.80
2022-10-16T11:36:14.425Z,10.13
2022-10-16T11:41:25.690Z,11.00
2022-10-16T11:46:29.883Z,11.00
2022-10-16T11:51:40.475Z,8.18
2022-10-16T11:56:47.300Z,10.10
2022-10-16T12:01:56.145Z,10.48
2022-10-16T12:07:06.841Z,13.83
2022-10-16T12:12:29.088Z,12.13
2022-10-16T12:17:41.354Z,16.45
2022-10-16T12:23:02.106Z,12.35
2022-10-16T12:28:07.886Z,19.60
2022-10-16T12:33:24.222Z,14.52
2022-10-16T12:38:40.389Z,13.45
2022-10-16T12:43:46.138Z,14.55
2022-10-16T12:49:05.934Z,13.25
2022-10-16T12:54:17.746Z,33.28
2022-10-16T12:59:33.446Z,17.85
2022-10-16T13:04:52.527Z,17.77
2022-10-16T13:10:09.597Z,21.53
2022-10-16T13:15:43.311Z,19.25
2022-10-16T13:21:07.180Z,13.25
2022-10-16T13:26:22.265Z,18.08
2022-10-16T13:31:27.242Z,15.60
2022-10-16T13:36:32.670Z,21.10
2022-10-16T13:41:37.498Z,15.32
2022-10-16T13:46:40.793Z,13.40
2022-10-16T13:51:56.555Z,13.55
2022-10-16T13:57:26.413Z,14.10
2022-10-16T14:02:35.985Z,25.63
2022-10-16T14:07:40.325Z,13.52
2022-10-16T14:12:46.260Z,11.38
2022-10-16T14:17:52.838Z,16.70
2022-10-16T14:23:05.548Z,10.10
2022-10-16T14:28:20.366Z,10.07
2022-10-16T14:33:26.428Z,10.13
2022-10-16T14:38:33.452Z,12.13
2022-10-16T14:43:40.095Z,13.95
2022-10-16T14:48:44.329Z,15.02
2022-10-16T14:53:47.768Z,15.57
2022-10-16T14:58:53.484Z,12.50
2022-10-16T15:03:57.288Z,16.10
2022-10-16T15:09:00.755Z,14.32
2022-10-16T15:14:06.095Z,17.55
2022-10-16T15:19:09.536Z,18.55
2022-10-16T15:24:17.813Z,13.93
2022-10-16T15:29:25.550Z,18.55
2022-10-16T15:34:28.914Z,15.95
2022-10-16T15:39:32.293Z,17.15
2022-10-16T15:44:36.973Z,18.55
2022-10-16T15:49:40.878Z,21.70
2022-10-16T15:54:44.293Z,23.88
2022-10-16T15:59:49.043Z,22.30
2022-10-16T16:04:52.614Z,22.63
2022-10-16T16:09:56.086Z,21.40
2022-10-16T16:15:03.491Z,19.58
2022-10-16T16:20:10.385Z,25.17
2022-10-16T16:25:14.026Z,18.45
2022-10-16T16:30:20.526Z,22.50
2022-10-16T16:35:26.318Z,45.70
2022-10-16T16:40:29.743Z,38.88
2022-10-16T16:45:37.347Z,24.38
2022-10-16T16:50:40.814Z,27.60
2022-10-16T16:55:44.259Z,23.40
2022-10-16T17:00:56.735Z,30.48
2022-10-16T17:06:08.353Z,30.00
2022-10-16T17:11:16.133Z,39.30
2022-10-16T17:16:20.922Z,34.53
2022-10-16T17:21:24.293Z,31.45
2022-10-16T17:26:28.447Z,39.45
2022-10-16T17:31:36.730Z,24.88
2022-10-16T17:36:43.956Z,31.83
2022-10-16T17:41:48.478Z,33.25
2022-10-16T17:46:54.973Z,28.40
2022-10-16T17:51:59.102Z,29.45
2022-10-16T17:57:02.666Z,26.23
2022-10-16T18:02:08.082Z,35.80
2022-10-16T18:07:11.698Z,46.38
2022-10-16T18:12:15.276Z,29.45
2022-10-16T18:17:19.994Z,42.35
2022-10-16T18:22:23.796Z,72.00
2022-10-16T18:27:27.976Z,40.55
2022-10-16T18:32:32.855Z,33.10
2022-10-16T18:37:37.187Z,35.83
2022-10-16T18:42:40.791Z,41.97
2022-10-16T18:47:46.183Z,44.22
2022-10-16T18:52:50.032Z,43.58
2022-10-16T18:57:55.207Z,41.70
2022-10-16T19:03:00.114Z,44.13
2022-10-16T19:08:03.520Z,52.30
2022-10-16T19:13:08.939Z,34.67
2022-10-16T19:18:16.024Z,38.97
2022-10-16T19:23:20.034Z,38.78
2022-10-16T19:28:30.624Z,37.58
2022-10-16T19:33:36.301Z,33.65
2022-10-16T19:38:40.393Z,59.65
2022-10-16T19:43:44.550Z,53.67
2022-10-16T19:48:49.485Z,56.00
2022-10-16T19:53:56.877Z,45.92
2022-10-16T19:59:00.989Z,39.42
2022-10-16T20:04:06.041Z,38.65
2022-10-16T20:09:09.711Z,48.58
2022-10-16T20:14:13.106Z,34.72
2022-10-16T20:19:17.817Z,52.63
2022-10-16T20:24:21.172Z,48.92
2022-10-16T20:29:24.639Z,36.47
2022-10-16T20:34:29.484Z,76.00
2022-10-16T20:39:32.995Z,44.17
2022-10-16T20:44:36.364Z,37.17
2022-10-16T20:49:41.280Z,33.20
2022-10-16T20:54:46.115Z,32.33
2022-10-16T20:59:55.003Z,35.83
2022-10-16T21:04:59.968Z,36.17
2022-10-16T21:10:03.397Z,37.47
2022-10-16T21:15:14.696Z,39.35
2022-10-16T21:20:21.614Z,38.50
2022-10-16T21:25:24.988Z,36.17
2022-10-16T21:30:28.529Z,39.20
2022-10-16T21:35:33.330Z,39.05
2022-10-16T21:40:36.657Z,35.70
2022-10-16T21:45:40.023Z,37.35
2022-10-16T21:50:50.021Z,39.08
2022-10-16T22:00:56.607Z,43.20
2022-10-16T22:06:06.695Z,39.70
2022-10-16T22:11:12.397Z,44.33
2022-10-16T22:16:16.711Z,35.85
2022-10-16T22:21:21.538Z,41.30
2022-10-16T22:26:24.844Z,36.40
2022-10-16T22:31:28.872Z,39.85
2022-10-16T22:36:34.704Z,34.90
2022-10-16T22:41:38.196Z,35.58
2022-10-16T22:46:41.537Z,33.63
2022-10-16T22:51:46.601Z,32.78
2022-10-16T22:56:49.957Z,33.28
2022-10-16T23:01:53.331Z,36.30
2022-10-16T23:06:59.190Z,31.75
2022-10-16T23:12:02.490Z,35.65
2022-10-16T23:17:05.783Z,33.53
2022-10-16T23:22:10.473Z,32.10
2022-10-16T23:27:13.826Z,38.47
2022-10-16T23:32:17.190Z,32.83
2022-10-16T23:37:21.927Z,31.50
2022-10-16T23:42:25.534Z,34.72
2022-10-16T23:47:29.392Z,34.28
2022-10-16T23:52:34.683Z,32.25
2022-10-16T23:57:38.018Z,33.75
